Time;durP1;ratioP1;P1;durP2;ratioP2;P2;SDS_P1;SDS_P2;PMS_P1;PMS_P2;Temp;Humidity;BMP_temperature;BMP_pressure;BME280_temperature;BME280_humidity;BME280_pressure;Samples;Min_cycle;Max_cycle;Signal;HPM_P1;HPM_P2
2022/05/14 00:00:38;;;;;;;8.40;6.78;;;;;;;17.19;100.00;98132.41;5026337;28;20053;-76
2022/05/14 00:03:04;;;;;;;9.40;6.53;;;;;;;17.24;100.00;98130.28;5015037;28;20018;-76
2022/05/14 00:05:29;;;;;;;9.95;6.70;;;;;;;17.23;100.00;98122.31;5015207;28;20057;-77
2022/05/14 00:07:56;;;;;;;10.02;7.63;;;;;;;17.21;100.00;98127.34;5046610;28;20121;-76
2022/05/14 00:10:24;;;;;;;9.18;6.55;;;;;;;17.22;100.00;98117.94;5014575;28;20479;-75
2022/05/14 00:13:05;;;;;;;9.57;7.45;;;;;;;17.16;100.00;98119.25;5014611;28;20030;-75
2022/05/14 00:15:40;;;;;;;13.02;7.63;;;;;;;17.09;100.00;98114.25;5013410;28;20030;-76
2022/05/14 00:18:08;;;;;;;10.10;7.05;;;;;;;17.11;100.00;98115.53;5029704;28;20026;-76
2022/05/14 00:20:36;;;;;;;9.80;7.75;;;;;;;17.07;100.00;98103.53;5014732;28;20038;-77
2022/05/14 00:23:03;;;;;;;9.80;6.97;;;;;;;17.16;100.00;98110.97;5014505;28;20054;-77
2022/05/14 00:25:28;;;;;;;11.13;6.80;;;;;;;17.19;100.00;98105.59;5014264;28;20577;-75
2022/05/14 00:27:54;;;;;;;10.75;6.88;;;;;;;17.08;100.00;98105.16;5012816;28;20037;-75
2022/05/14 00:30:23;;;;;;;12.57;7.43;;;;;;;17.02;100.00;98103.72;5014296;28;20065;-76
2022/05/14 00:32:50;;;;;;;9.80;6.95;;;;;;;17.13;100.00;98107.72;5014324;28;20463;-74
2022/05/14 00:35:16;;;;;;;12.45;8.52;;;;;;;17.06;100.00;98101.91;5014724;28;20017;-76
2022/05/14 00:37:42;;;;;;;12.05;7.82;;;;;;;17.10;100.00;98102.84;5014439;28;20037;-75
2022/05/14 00:40:12;;;;;;;10.45;7.53;;;;;;;17.18;100.00;98103.16;5014039;28;20022;-75
2022/05/14 00:42:38;;;;;;;12.18;7.50;;;;;;;17.21;100.00;98097.75;5014118;28;20034;-76
2022/05/14 00:45:06;;;;;;;12.57;7.70;;;;;;;17.28;100.00;98108.28;5014421;28;20108;-75
2022/05/14 00:47:37;;;;;;;9.98;7.57;;;;;;;17.28;100.00;98114.63;5029741;28;20026;-76
2022/05/14 00:50:29;;;;;;;16.25;8.32;;;;;;;17.26;100.00;98107.81;5015819;28;20033;-78
2022/05/14 00:53:02;;;;;;;10.70;7.72;;;;;;;17.23;100.00;98116.78;5043131;28;20399;-75
2022/05/14 00:55:28;;;;;;;11.07;8.13;;;;;;;17.24;100.00;98094.31;5014767;28;20026;-74
2022/05/14 00:57:54;;;;;;;11.25;7.82;;;;;;;17.28;100.00;98102.75;5013979;28;20088;-76
2022/05/14 01:00:23;;;;;;;9.93;7.65;;;;;;;17.27;100.00;98103.91;5013769;28;20434;-75
2022/05/14 01:02:48;;;;;;;12.82;7.78;;;;;;;17.29;100.00;98112.69;5013614;28;20032;-75
2022/05/14 01:05:18;;;;;;;13.25;9.20;;;;;;;17.27;100.00;98107.47;5014171;28;20034;-74
2022/05/14 01:07:46;;;;;;;12.45;7.88;;;;;;;17.25;100.00;98104.25;5013257;28;20029;-75
2022/05/14 01:10:12;;;;;;;15.10;8.68;;;;;;;17.21;100.00;98105.25;5013453;28;20036;-76
2022/05/14 01:12:43;;;;;;;14.90;8.07;;;;;;;17.22;100.00;98104.09;5013640;28;20053;-75
2022/05/14 01:15:19;;;;;;;17.63;8.05;;;;;;;17.27;100.00;98106.66;5012256;28;20030;-76
2022/05/14 01:17:45;;;;;;;11.77;8.23;;;;;;;17.27;100.00;98113.00;5013435;28;20029;-76
2022/05/14 01:20:12;;;;;;;12.15;8.48;;;;;;;17.27;100.00;98114.97;5028867;28;20072;-76
2022/05/14 01:23:02;;;;;;;11.57;8.32;;;;;;;17.19;100.00;98116.66;5013481;28;20513;-75
2022/05/14 01:28:43;;;;;;;13.27;9.13;;;;;;;16.99;100.00;98118.22;5032118;28;20082;-76
2022/05/14 01:31:08;;;;;;;13.90;9.27;;;;;;;17.00;100.00;98125.38;5032921;28;20108;-77
2022/05/14 01:33:36;;;;;;;12.95;9.25;;;;;;;16.98;100.00;98121.28;5033005;28;20371;-75
2022/05/14 01:36:04;;;;;;;11.90;8.00;;;;;;;16.92;100.00;98123.44;5033187;28;20022;-75
2022/05/14 01:38:30;;;;;;;13.38;8.52;;;;;;;16.87;100.00;98109.81;5032645;28;20526;-77
2022/05/14 01:40:55;;;;;;;12.43;8.48;;;;;;;16.88;100.00;98118.94;5032578;28;20124;-75
2022/05/14 01:43:21;;;;;;;15.07;8.57;;;;;;;16.86;100.00;98119.25;5032774;28;20024;-74
2022/05/14 01:45:46;;;;;;;12.40;7.53;;;;;;;16.88;100.00;98110.63;5031590;28;20021;-75
2022/05/14 01:48:12;;;;;;;12.05;7.68;;;;;;;16.79;100.00;98107.09;5032878;28;20242;-76
2022/05/14 01:50:38;;;;;;;13.43;8.27;;;;;;;16.82;100.00;98117.50;5032764;28;20087;-75
2022/05/14 01:53:05;;;;;;;10.82;8.15;;;;;;;16.79;100.00;98112.63;5032843;28;20080;-77
2022/05/14 01:55:30;;;;;;;10.80;7.85;;;;;;;16.86;100.00;98119.25;5033712;28;20044;-76
2022/05/14 01:57:55;;;;;;;12.02;8.60;;;;;;;16.83;100.00;98119.91;5053080;28;20021;-77
2022/05/14 02:00:21;;;;;;;10.82;8.10;;;;;;;16.79;100.00;98123.69;5042185;28;20033;-76
2022/05/14 02:02:47;;;;;;;12.10;8.35;;;;;;;16.79;100.00;98126.44;5033116;28;20029;-79
2022/05/14 02:05:14;;;;;;;11.20;8.05;;;;;;;16.82;100.00;98131.31;5048203;28;20513;-77
2022/05/14 02:07:40;;;;;;;13.75;8.57;;;;;;;16.82;100.00;98123.03;5032369;28;20075;-78
2022/05/14 02:10:05;;;;;;;12.32;9.02;;;;;;;16.83;100.00;98142.00;5047766;28;20471;-77
2022/05/14 02:12:31;;;;;;;10.60;7.80;;;;;;;16.86;100.00;98143.28;5032329;28;20434;-78
2022/05/14 02:14:56;;;;;;;9.95;8.18;;;;;;;16.93;100.00;98140.84;5032699;28;20025;-77
2022/05/14 02:17:22;;;;;;;11.60;8.18;;;;;;;17.00;100.00;98150.25;5032028;28;20021;-76
2022/05/14 02:19:49;;;;;;;10.23;7.72;;;;;;;16.96;100.00;98146.50;5030995;28;20041;-76
2022/05/14 02:22:15;;;;;;;13.82;8.93;;;;;;;17.04;100.00;98148.41;5032035;28;20445;-77
2022/05/14 02:24:41;;;;;;;11.43;8.68;;;;;;;17.08;100.00;98154.09;5031889;28;20104;-76
2022/05/14 02:27:06;;;;;;;11.45;7.78;;;;;;;17.05;100.00;98138.19;5047468;28;20063;-76
2022/05/14 02:29:50;;;;;;;10.90;7.95;;;;;;;17.09;100.00;98134.44;5030257;28;20139;-77
2022/05/14 02:32:21;;;;;;;10.23;8.00;;;;;;;17.01;100.00;98140.78;5047217;28;20037;-76
2022/05/14 02:34:47;;;;;;;10.95;8.25;;;;;;;17.03;100.00;98143.25;5032259;28;20467;-76
2022/05/14 02:37:14;;;;;;;10.20;8.52;;;;;;;17.07;100.00;98156.03;5031882;28;20036;-76
2022/05/14 02:39:40;;;;;;;10.98;8.25;;;;;;;17.06;100.00;98151.69;5046960;28;20052;-76
2022/05/14 02:42:05;;;;;;;13.60;8.80;;;;;;;17.10;100.00;98158.13;5030705;28;20466;-76
2022/05/14 02:44:31;;;;;;;10.75;7.78;;;;;;;17.05;100.00;98155.56;5031974;28;20376;-76
2022/05/14 02:46:56;;;;;;;11.50;8.70;;;;;;;17.05;100.00;98155.56;5048962;28;20144;-76
2022/05/14 02:49:21;;;;;;;11.73;7.60;;;;;;;17.08;100.00;98157.69;5030073;28;20025;-77
2022/05/14 02:51:47;;;;;;;14.80;8.13;;;;;;;17.10;100.00;98163.66;5031789;28;20032;-76
2022/05/14 02:54:12;;;;;;;13.93;8.15;;;;;;;17.08;100.00;98154.09;5046954;28;20028;-77
2022/05/14 02:56:38;;;;;;;11.90;8.50;;;;;;;16.99;100.00;98139.50;5029976;28;20077;-76
2022/05/14 02:59:07;;;;;;;13.27;8.23;;;;;;;17.02;100.00;98159.00;5030057;28;20029;-76
2022/05/14 03:01:33;;;;;;;12.15;8.43;;;;;;;16.99;100.00;98150.56;5030596;28;20033;-77
2022/05/14 03:04:00;;;;;;;14.82;9.43;;;;;;;17.01;100.00;98157.38;5035861;28;20036;-76
2022/05/14 03:06:25;;;;;;;16.88;8.82;;;;;;;17.01;100.00;98160.13;5037643;28;20037;-76
2022/05/14 03:08:51;;;;;;;12.32;9.05;;;;;;;17.04;100.00;98158.69;5031445;28;20029;-77
2022/05/14 03:11:16;;;;;;;15.57;7.78;;;;;;;17.10;100.00;98163.66;5031386;28;20032;-76
2022/05/14 03:13:43;;;;;;;12.68;8.55;;;;;;;17.11;100.00;98158.97;5031308;28;20620;-77
2022/05/14 03:16:09;;;;;;;12.20;8.15;;;;;;;17.21;100.00;98155.00;5031059;28;20057;-78
2022/05/14 03:18:34;;;;;;;11.98;8.57;;;;;;;17.18;100.00;98164.78;5030734;28;20063;-76
2022/05/14 03:21:00;;;;;;;13.02;8.55;;;;;;;17.17;100.00;98163.16;5031135;28;20389;-77
2022/05/14 03:23:25;;;;;;;13.80;8.65;;;;;;;17.26;100.00;98161.16;5030974;28;20028;-77
2022/05/14 03:25:51;;;;;;;14.50;9.40;;;;;;;17.23;100.00;98149.97;5029761;28;20025;-77
2022/05/14 03:28:17;;;;;;;15.77;9.38;;;;;;;17.32;100.00;98161.78;5030921;28;20044;-75
2022/05/14 03:30:42;;;;;;;12.25;9.40;;;;;;;17.33;100.00;98166.16;5030546;28;20025;-76
2022/05/14 03:33:08;;;;;;;10.07;8.07;;;;;;;17.34;100.00;98170.56;5030711;28;20448;-76
2022/05/14 03:35:34;;;;;;;11.98;8.60;;;;;;;17.41;100.00;98179.16;5031087;28;20025;-75
2022/05/14 03:38:00;;;;;;;15.20;9.05;;;;;;;17.34;100.00;98170.56;5031066;28;20549;-75
2022/05/14 03:40:25;;;;;;;11.30;9.23;;;;;;;17.30;100.00;98175.13;5030741;28;20117;-76
2022/05/14 03:42:50;;;;;;;14.07;8.88;;;;;;;17.23;100.00;98178.41;5046145;28;20148;-76
2022/05/14 03:45:16;;;;;;;16.02;9.77;;;;;;;17.25;100.00;98180.84;5028537;28;20052;-77
2022/05/14 03:47:41;;;;;;;12.55;8.90;;;;;;;17.27;100.00;98176.59;5030831;28;20030;-77
2022/05/14 03:50:07;;;;;;;14.25;9.38;;;;;;;17.29;100.00;98176.28;5025455;28;20542;-78
2022/05/14 03:52:33;;;;;;;15.18;8.80;;;;;;;17.40;100.00;98185.81;5028604;28;20112;-76
2022/05/14 03:54:58;;;;;;;14.95;9.38;;;;;;;17.40;100.00;98177.50;5045650;28;20536;-77
2022/05/14 03:57:23;;;;;;;17.17;9.15;;;;;;;17.53;100.00;98182.00;5030237;28;20525;-78
2022/05/14 03:59:49;;;;;;;13.15;8.52;;;;;;;17.58;100.00;98179.06;5030980;28;20029;-77
2022/05/14 04:02:15;;;;;;;13.02;8.30;;;;;;;17.51;100.00;98185.09;5027581;28;20083;-79
2022/05/14 04:04:41;;;;;;;12.18;8.57;;;;;;;17.52;100.00;98189.47;5019490;28;20040;-77
2022/05/14 04:07:07;;;;;;;10.88;8.02;;;;;;;17.35;100.00;98191.53;5037448;28;20034;-77
2022/05/14 04:09:32;;;;;;;10.73;8.18;;;;;;;17.22;100.00;98184.28;5023177;28;20038;-76
2022/05/14 04:11:58;;;;;;;13.75;8.68;;;;;;;17.24;100.00;98184.75;5009443;28;20038;-77
2022/05/14 04:14:23;;;;;;;10.98;8.48;;;;;;;17.11;100.00;98187.41;5012231;28;20057;-76
2022/05/14 04:16:49;;;;;;;12.30;8.50;;;;;;;17.04;100.00;98187.13;5011258;28;20029;-77
2022/05/14 04:19:14;;;;;;;10.68;8.38;;;;;;;17.04;100.00;98197.38;5010890;28;20053;-78
2022/05/14 04:21:40;;;;;;;12.25;8.77;;;;;;;16.97;100.00;98197.91;5018530;28;20048;-77
2022/05/14 04:24:06;;;;;;;12.60;8.77;;;;;;;16.93;100.00;98202.44;5030018;28;20030;-76
2022/05/14 04:26:32;;;;;;;11.27;8.63;;;;;;;16.97;100.00;98211.72;5045663;28;20021;-76
2022/05/14 04:28:59;;;;;;;11.68;8.70;;;;;;;16.91;100.00;98204.75;5045660;28;20498;-76
2022/05/14 04:31:25;;;;;;;10.90;8.75;;;;;;;17.08;100.00;98212.97;5030966;28;20022;-81
2022/05/14 04:33:50;;;;;;;13.27;9.38;;;;;;;17.20;100.00;98208.69;5031441;28;20029;-79
2022/05/14 04:36:16;;;;;;;14.82;8.55;;;;;;;17.30;100.00;98219.38;5031186;28;20032;-78
2022/05/14 04:38:42;;;;;;;13.13;8.70;;;;;;;17.34;100.00;98223.09;5033401;28;20025;-80
2022/05/14 04:41:07;;;;;;;11.73;8.90;;;;;;;17.30;100.00;98224.91;5049803;28;20037;-84
2022/05/14 04:43:33;;;;;;;14.02;8.93;;;;;;;17.31;100.00;98229.28;5056241;28;20180;-86
2022/05/14 04:45:58;;;;;;;12.15;8.80;;;;;;;17.25;100.00;98223.16;5052700;28;20076;-82
2022/05/14 04:48:24;;;;;;;13.68;9.68;;;;;;;17.38;100.00;98233.19;5056412;28;20029;-85
2022/05/14 04:50:50;;;;;;;13.07;9.38;;;;;;;17.31;100.00;98227.34;5057720;28;20018;-82
2022/05/14 04:53:15;;;;;;;11.85;9.07;;;;;;;17.34;100.00;98228.63;5056999;28;20100;-85
2022/05/14 04:55:41;;;;;;;11.68;8.50;;;;;;;17.37;100.00;98239.03;5055276;28;20061;-83
2022/05/14 04:58:08;;;;;;;15.70;8.48;;;;;;;17.50;100.00;98243.53;5055251;28;20029;-83
2022/05/14 05:00:34;;;;;;;17.67;8.77;;;;;;;17.67;100.00;98253.72;5054981;28;20025;-85
2022/05/14 05:03:19;;;;;;;12.00;8.18;;;;;;;17.84;100.00;98250.84;5050096;28;20025;-84
2022/05/14 05:05:47;;;;;;;13.18;8.63;;;;;;;18.02;100.00;98261.47;5052287;28;20009;-82
2022/05/14 05:08:13;;;;;;;10.43;8.30;;;;;;;18.26;100.00;98258.03;5050709;28;20044;-82
2022/05/14 05:10:39;;;;;;;14.02;9.57;;;;;;;18.25;100.00;98255.59;5048130;28;20021;-81
2022/05/14 05:13:09;;;;;;;15.68;9.88;;;;;;;18.28;100.00;98266.81;5063776;28;20037;-81
2022/05/14 05:15:34;;;;;;;12.80;8.82;;;;;;;18.35;100.00;98266.28;5062196;28;20040;-83
2022/05/14 05:17:59;;;;;;;13.15;9.25;;;;;;;18.38;100.00;98273.91;5051306;28;20025;-84
2022/05/14 05:20:25;;;;;;;15.77;9.90;;;;;;;18.32;100.00;98270.53;5051912;28;20505;-82
2022/05/14 05:22:50;;;;;;;12.35;9.13;;;;;;;18.29;100.00;98270.41;5049902;28;20029;-82
2022/05/14 05:25:16;;;;;;;14.93;9.32;;;;;;;18.34;100.00;98267.41;5053109;28;20448;-84
2022/05/14 05:27:42;;;;;;;12.63;9.38;;;;;;;18.20;100.00;98270.44;5054052;28;20023;-86
2022/05/14 05:30:08;;;;;;;11.57;8.15;;;;;;;18.22;100.00;98275.66;5041052;28;20467;-79
2022/05/14 05:32:34;;;;;;;15.48;10.35;;;;;;;18.11;100.00;98270.50;5043573;28;20040;-77
2022/05/14 05:34:59;;;;;;;16.45;10.88;;;;;;;18.15;100.00;98271.47;5034037;28;20029;-76
2022/05/14 05:37:25;;;;;;;15.43;10.50;;;;;;;18.26;100.00;98271.88;5032218;28;20057;-80
2022/05/14 05:39:50;;;;;;;18.05;10.07;;;;;;;18.27;100.00;98283.75;5029842;28;20026;-78
2022/05/14 05:42:15;;;;;;;12.85;9.77;;;;;;;18.22;100.00;98281.19;5029341;28;20029;-76
2022/05/14 05:44:41;;;;;;;15.07;10.85;;;;;;;18.28;100.00;98288.16;5047036;28;21471;-77
2022/05/14 05:47:07;;;;;;;14.10;9.10;;;;;;;18.23;100.00;98291.13;5032017;28;20540;-75
2022/05/14 05:49:38;;;;;;;19.27;10.93;;;;;;;18.52;100.00;98299.41;5032668;28;20026;-81
2022/05/14 05:52:04;;;;;;;13.98;10.00;;;;;;;18.57;100.00;98299.22;5034337;28;20033;-79
2022/05/14 05:57:13;;;;;;;14.63;10.32;;;;;;;18.62;100.00;98307.31;5022176;28;20493;-79
2022/05/14 05:59:39;;;;;;;15.48;10.45;;;;;;;18.53;100.00;98314.88;5033504;28;20030;-80
2022/05/14 06:02:05;;;;;;;17.38;9.75;;;;;;;18.37;100.00;98314.66;5032942;28;20073;-81
2022/05/14 06:04:30;;;;;;;14.88;8.95;;;;;;;18.24;100.00;98314.91;5031421;28;20048;-74
2022/05/14 06:06:55;;;;;;;37.78;17.80;;;;;;;18.11;100.00;98298.19;5046711;28;20038;-76
2022/05/14 06:09:26;;;;;;;18.73;11.88;;;;;;;18.21;100.00;98308.06;5031366;28;20025;-77
2022/05/14 06:11:52;;;;;;;13.93;9.80;;;;;;;18.15;100.00;98309.41;5032049;28;20060;-78
2022/05/14 06:14:18;;;;;;;12.35;8.60;;;;;;;18.21;100.00;98313.63;5034247;28;20021;-78
2022/05/14 06:16:43;;;;;;;12.48;8.65;;;;;;;18.30;100.00;98316.31;5030782;28;20029;-77
2022/05/14 06:19:10;;;;;;;28.52;20.17;;;;;;;18.36;100.00;98318.56;5028094;28;20136;-80
2022/05/14 06:21:37;;;;;;;16.58;9.93;;;;;;;18.38;100.00;98323.78;5046583;28;20041;-80
2022/05/14 06:24:04;;;;;;;62.50;32.30;;;;;;;18.36;100.00;98320.50;5031273;28;20057;-76
2022/05/14 06:26:29;;;;;;;23.98;13.48;;;;;;;18.28;100.00;98324.16;5031366;28;20018;-78
2022/05/14 06:28:55;;;;;;;12.13;7.15;;;;;;;18.42;100.00;98330.28;5030956;28;20032;-78
2022/05/14 06:31:20;;;;;;;19.90;14.50;;;;;;;18.60;100.00;98332.59;5028873;28;20021;-76
2022/05/14 06:33:47;;;;;;;10.00;6.82;;;;;;;18.82;100.00;98334.19;5030743;28;20096;-77
2022/05/14 06:36:13;;;;;;;14.38;8.02;;;;;;;19.01;100.00;98340.06;5031262;28;20025;-75
2022/05/14 06:38:39;;;;;;;13.85;9.50;;;;;;;19.18;100.00;98339.88;5030792;28;20087;-76
2022/05/14 06:41:06;;;;;;;10.73;7.07;;;;;;;19.44;100.00;98355.47;5048376;28;20096;-76
2022/05/14 06:43:32;;;;;;;44.72;26.52;;;;;;;19.45;100.00;98357.09;5029362;28;20026;-76
2022/05/14 06:45:57;;;;;;;19.60;12.63;;;;;;;19.41;100.00;98356.16;5028918;28;20024;-75
2022/05/14 06:48:23;;;;;;;17.80;11.93;;;;;;;19.49;100.00;98353.28;5030783;28;20433;-76
2022/05/14 06:50:50;;;;;;;10.38;6.30;;;;;;;19.68;100.00;98355.50;5045957;28;20137;-76
2022/05/14 06:53:18;;;;;;;10.13;6.55;;;;;;;19.97;100.00;98358.09;5028652;28;20124;-75
2022/05/14 06:55:47;;;;;;;8.88;6.55;;;;;;;20.39;100.00;98360.66;5030280;28;20057;-76
2022/05/14 06:58:16;;;;;;;8.00;6.00;;;;;;;20.53;100.00;98358.28;5030443;28;20033;-75
2022/05/14 07:00:42;;;;;;;13.48;6.97;;;;;;;20.57;100.00;98362.00;5030143;28;20055;-75
2022/05/14 07:08:37;;;;;;;13.40;7.82;;;;;;;21.41;100.00;98365.66;5030995;28;20517;-77
2022/05/14 07:11:02;;;;;;;10.57;6.22;;;;;;;21.12;100.00;98356.50;5029305;28;20029;-76
2022/05/14 07:13:27;;;;;;;9.38;6.60;;;;;;;21.02;100.00;98370.88;5030525;28;20021;-75
2022/05/14 07:15:53;;;;;;;11.02;6.57;;;;;;;20.99;100.00;98366.03;5030607;28;20029;-77
2022/05/14 07:18:19;;;;;;;8.80;6.80;;;;;;;20.90;100.00;98364.56;5030475;28;20029;-76
2022/05/14 07:20:44;;;;;;;8.48;6.70;;;;;;;20.88;100.00;98359.38;5030393;28;20040;-75
2022/05/14 07:23:09;;;;;;;8.85;6.93;;;;;;;21.25;100.00;98363.66;5030023;28;20556;-75
2022/05/14 07:25:35;;;;;;;13.07;7.05;;;;;;;21.35;100.00;98365.91;5030058;28;20029;-75
2022/05/14 07:28:01;;;;;;;9.45;6.25;;;;;;;21.63;100.00;98368.66;5030786;28;20394;-76
2022/05/14 07:30:26;;;;;;;11.18;6.63;;;;;;;22.20;98.80;98367.34;5029120;28;20025;-76
2022/05/14 07:32:52;;;;;;;11.32;6.50;;;;;;;22.43;98.00;98368.28;5030155;28;20108;-77
2022/05/14 07:35:17;;;;;;;11.40;7.32;;;;;;;22.89;92.90;98374.94;5029552;28;20478;-79
2022/05/14 07:37:47;;;;;;;9.75;6.88;;;;;;;23.20;91.42;98369.22;5030489;28;20029;-76
2022/05/14 07:40:19;;;;;;;13.05;9.48;;;;;;;23.72;88.51;98385.41;5061924;28;20029;-77
2022/05/14 07:42:53;;;;;;;12.02;7.43;;;;;;;23.96;85.61;98375.88;5043594;28;20045;-75
2022/05/14 07:45:27;;;;;;;17.25;7.43;;;;;;;23.40;89.56;98378.41;5027175;28;20029;-76
2022/05/14 07:47:55;;;;;;;7.75;6.10;;;;;;;23.22;89.20;98372.44;5027064;28;20049;-78
2022/05/14 07:50:21;;;;;;;10.05;6.30;;;;;;;23.37;88.34;98368.75;5027367;28;20030;-76
2022/05/14 07:52:46;;;;;;;9.20;5.72;;;;;;;24.24;83.49;98373.56;5028339;28;20033;-77
2022/05/14 07:55:12;;;;;;;14.07;6.18;;;;;;;24.51;82.53;98386.38;5028686;28;20457;-78
2022/05/14 07:57:38;;;;;;;8.80;6.50;;;;;;;25.04;77.40;98372.34;5028617;28;20040;-78
2022/05/14 08:00:05;;;;;;;11.25;5.18;;;;;;;25.73;73.72;98376.38;5028527;28;20052;-78
2022/05/14 08:02:34;;;;;;;7.20;5.85;;;;;;;26.84;66.50;98378.94;5028722;28;20112;-76
2022/05/14 08:05:05;;;;;;;6.03;4.68;;;;;;;28.00;59.61;98379.38;5029305;28;20080;-77
2022/05/14 08:07:31;;;;;;;7.68;5.07;;;;;;;27.86;57.35;98376.53;5029233;28;20026;-77
2022/05/14 08:09:58;;;;;;;6.57;4.55;;;;;;;29.56;53.00;98373.50;5029233;28;20036;-81
2022/05/14 08:12:24;;;;;;;9.23;4.95;;;;;;;28.59;54.07;98369.34;5029542;28;20030;-83
2022/05/14 08:14:49;;;;;;;5.30;4.32;;;;;;;28.45;52.57;98377.78;5030294;28;20033;-79
2022/05/14 08:17:15;;;;;;;6.82;4.22;;;;;;;28.52;54.29;98369.34;5038562;28;20040;-78
2022/05/14 08:19:40;;;;;;;8.05;4.53;;;;;;;29.42;52.26;98363.09;5043974;28;20021;-76
2022/05/14 08:24:51;;;;;;;12.05;5.15;;;;;;;30.71;48.11;98365.41;5028460;28;20095;-75
2022/05/14 08:27:18;;;;;;;5.82;4.63;;;;;;;28.95;50.24;98372.91;5034046;28;20128;-82
2022/05/14 08:29:48;;;;;;;5.00;3.78;;;;;;;30.29;45.18;98365.78;5034400;28;20037;-77
2022/05/14 08:32:18;;;;;;;5.50;3.95;;;;;;;30.43;45.08;98365.66;5037923;28;20038;-76
2022/05/14 08:34:44;;;;;;;4.55;3.75;;;;;;;29.25;46.41;98372.44;5041460;28;20478;-83
2022/05/14 08:37:10;;;;;;;6.28;4.07;;;;;;;29.74;44.79;98369.34;5037898;28;20025;-83
2022/05/14 08:39:37;;;;;;;4.85;3.72;;;;;;;30.50;41.86;98367.63;5040280;28;20036;-80
2022/05/14 08:42:06;;;;;;;4.55;3.30;;;;;;;31.36;39.50;98366.28;5035756;28;20529;-80
2022/05/14 08:44:34;;;;;;;8.82;4.00;;;;;;;29.52;43.33;98365.06;5040297;28;20039;-83
2022/05/14 08:47:06;;;;;;;4.30;3.20;;;;;;;30.63;40.76;98363.88;5054313;28;20031;-82
2022/05/14 08:49:38;;;;;;;4.65;3.60;;;;;;;28.39;45.64;98358.91;5042638;28;20025;-77
2022/05/14 08:52:09;;;;;;;5.10;3.25;;;;;;;30.37;40.79;98355.19;5034017;28;20119;-73
2022/05/14 08:54:35;;;;;;;5.65;3.53;;;;;;;30.41;40.49;98348.34;5032311;28;20026;-74
2022/05/14 08:57:12;;;;;;;4.78;3.50;;;;;;;28.85;44.11;98350.41;5032367;28;20050;-75
2022/05/14 08:59:57;;;;;;;11.68;3.55;;;;;;;29.00;43.82;98351.97;5024089;28;20530;-75
2022/05/14 09:02:23;;;;;;;4.90;3.15;;;;;;;28.47;44.51;98340.81;5027131;28;20024;-74
2022/05/14 09:04:50;;;;;;;4.47;3.50;;;;;;;28.01;44.89;98341.59;5045560;28;20393;-73
2022/05/14 09:07:16;;;;;;;4.13;3.10;;;;;;;29.67;41.97;98341.19;5037175;28;20278;-75
2022/05/14 09:09:50;;;;;;;4.30;3.22;;;;;;;31.05;39.19;98344.84;5030687;28;20064;-73
2022/05/14 09:12:19;;;;;;;7.93;4.90;;;;;;;30.82;37.92;98348.34;5028766;28;20033;-73
2022/05/14 09:14:45;;;;;;;15.52;10.05;;;;;;;31.71;34.93;98343.19;5029376;28;20021;-74
2022/05/14 09:17:23;;;;;;;4.40;3.00;;;;;;;27.08;39.31;98338.94;5029664;28;20132;-75
2022/05/14 09:19:52;;;;;;;6.47;2.80;;;;;;;28.25;37.90;98336.41;5026489;28;20510;-74
2022/05/14 09:22:26;;;;;;;4.30;2.83;;;;;;;29.72;36.06;98349.22;5027011;28;20045;-74
2022/05/14 09:24:54;;;;;;;;;;;;;;;28.69;36.98;98348.03;5029888;28;20053;-73
2022/05/14 09:27:42;;;;;;;4.18;2.58;;;;;;;30.27;33.47;98345.59;5029585;28;19931;-72
2022/05/14 09:30:13;;;;;;;4.43;3.28;;;;;;;28.69;35.65;98342.41;5041362;28;20030;-74
2022/05/14 09:32:44;;;;;;;5.00;2.17;;;;;;;29.69;35.37;98338.78;5027726;28;20033;-72
2022/05/14 09:35:09;;;;;;;5.32;3.00;;;;;;;28.81;37.11;98343.97;5027505;28;20064;-72
2022/05/14 09:37:35;;;;;;;3.97;2.78;;;;;;;28.06;39.14;98344.06;5029097;28;20037;-74
2022/05/14 09:40:08;;;;;;;4.45;2.80;;;;;;;28.00;39.34;98340.00;5027082;28;20033;-73
2022/05/14 09:43:10;;;;;;;4.20;3.17;;;;;;;28.44;38.41;98333.97;5041892;28;20022;-73
2022/05/14 09:45:39;;;;;;;7.50;2.53;;;;;;;28.35;38.89;98327.16;5027995;28;20025;-73
2022/05/14 09:48:31;;;;;;;4.07;2.80;;;;;;;29.68;34.94;98339.97;5029008;28;20032;-73
2022/05/14 09:51:00;;;;;;;7.18;2.80;;;;;;;30.53;34.18;98341.38;5022357;28;20041;-74
2022/05/14 09:53:36;;;;;;;4.28;2.88;;;;;;;30.12;34.66;98342.09;5027300;28;20061;-74
2022/05/14 09:56:32;;;;;;;4.20;2.65;;;;;;;28.76;36.44;98335.97;5028820;28;20128;-74
2022/05/14 09:59:16;;;;;;;2.80;2.20;;;;;;;29.03;36.49;98331.44;5030990;28;20029;-73
2022/05/14 10:01:48;;;;;;;4.10;2.55;;;;;;;28.84;36.40;98337.53;5026924;28;20033;-73
2022/05/14 10:04:49;;;;;;;4.07;3.05;;;;;;;28.69;36.70;98340.38;5029157;28;20018;-73
2022/05/14 10:07:23;;;;;;;5.50;2.58;;;;;;;29.02;36.33;98341.09;5030049;28;20048;-73
2022/05/14 10:09:56;;;;;;;4.75;2.80;;;;;;;29.04;35.60;98338.69;5024487;28;20518;-72
2022/05/14 10:12:35;;;;;;;4.33;2.77;;;;;;;30.12;32.83;98335.66;5025955;28;20541;-72
2022/05/14 10:15:15;;;;;;;2.90;2.30;;;;;;;32.11;30.29;98337.78;5026258;28;20168;-73
2022/05/14 10:17:59;;;;;;;4.22;2.78;;;;;;;32.09;30.71;98334.56;5039638;28;21233;-72
2022/05/14 10:20:37;;;;;;;3.70;2.50;;;;;;;30.93;32.82;98336.91;5026131;28;20030;-73
2022/05/14 10:29:18;;;;;;;4.97;2.95;;;;;;;27.99;38.69;98321.50;5027366;28;20231;-72
2022/05/14 10:31:46;;;;;;;3.60;2.80;;;;;;;28.96;36.41;98314.53;5026362;28;20034;-73
2022/05/14 10:34:19;;;;;;;3.90;2.75;;;;;;;26.65;40.16;98309.03;5042399;28;20076;-73
2022/05/14 10:36:51;;;;;;;3.55;2.75;;;;;;;26.16;40.86;98299.06;5027742;28;20018;-73
2022/05/14 10:39:52;;;;;;;5.45;3.13;;;;;;;26.81;39.33;98289.88;5028078;28;20433;-72
2022/05/14 10:42:32;;;;;;;5.05;3.08;;;;;;;25.53;43.57;98296.50;5011704;28;20045;-73
2022/05/14 10:45:15;;;;;;;3.60;2.63;;;;;;;24.98;44.74;98289.88;5022762;28;20120;-74
2022/05/14 10:47:45;;;;;;;4.68;2.85;;;;;;;24.65;44.92;98287.84;5027691;28;20694;-74
2022/05/14 10:50:19;;;;;;;6.60;3.45;;;;;;;24.34;46.11;98282.63;5025416;28;20039;-74
2022/05/14 10:52:47;;;;;;;6.40;2.73;;;;;;;24.82;44.58;98261.28;5024549;28;20394;-74
2022/05/14 10:55:24;;;;;;;4.45;2.72;;;;;;;25.22;44.16;98268.94;5026214;28;20025;-73
2022/05/14 10:57:57;;;;;;;3.42;2.85;;;;;;;24.91;44.91;98270.19;5025556;28;20060;-72
2022/05/14 11:00:36;;;;;;;4.57;3.22;;;;;;;24.74;44.54;98263.19;5026356;28;20056;-75
2022/05/14 11:03:28;;;;;;;3.95;3.20;;;;;;;24.39;45.91;98260.72;5025241;28;20061;-74
2022/05/14 11:05:54;;;;;;;4.38;3.00;;;;;;;24.29;45.26;98264.19;5026486;28;20398;-72
2022/05/14 11:08:34;;;;;;;4.15;2.63;;;;;;;24.35;45.15;98253.47;5041862;28;20029;-71
2022/05/14 11:11:19;;;;;;;5.18;2.80;;;;;;;24.56;45.27;98247.34;5027505;28;20083;-74
2022/05/14 11:13:58;;;;;;;4.15;3.00;;;;;;;24.82;45.15;98247.28;5025752;28;20026;-72
2022/05/14 11:16:36;;;;;;;3.97;3.03;;;;;;;24.19;45.60;98242.44;5026633;28;20029;-75
2022/05/14 11:19:04;;;;;;;5.13;3.05;;;;;;;24.37;47.01;98231.53;5027122;28;20405;-72
2022/05/14 11:21:44;;;;;;;6.07;2.80;;;;;;;24.59;44.68;98243.81;5041201;28;20038;-73
2022/05/14 11:24:13;;;;;;;3.30;2.70;;;;;;;24.75;45.26;98238.78;5026473;28;20076;-74
2022/05/14 11:26:51;;;;;;;5.32;3.53;;;;;;;25.10;45.30;98230.81;5027743;28;20088;-75
2022/05/14 11:29:20;;;;;;;4.53;2.67;;;;;;;25.10;42.85;98225.22;5027572;28;20045;-76
2022/05/14 11:32:09;;;;;;;4.57;2.80;;;;;;;25.06;43.89;98217.97;5042514;28;20037;-75
2022/05/14 11:34:35;;;;;;;4.70;3.20;;;;;;;25.18;43.52;98231.72;5021124;28;20143;-75
2022/05/14 11:37:02;;;;;;;4.57;2.92;;;;;;;24.85;43.96;98224.13;5026253;28;20060;-75
2022/05/14 11:39:32;;;;;;;6.32;2.60;;;;;;;25.06;44.36;98223.59;5027604;28;20025;-74
2022/05/14 11:42:09;;;;;;;3.08;2.30;;;;;;;25.64;43.25;98232.16;5025139;28;20037;-73
2022/05/14 11:44:35;;;;;;;6.00;2.80;;;;;;;24.53;45.76;98218.94;5026184;28;20036;-78
2022/05/14 11:47:02;;;;;;;3.88;2.45;;;;;;;24.89;45.06;98213.78;5026856;28;20033;-74
2022/05/14 11:49:39;;;;;;;4.28;2.63;;;;;;;24.53;45.63;98216.13;5041525;28;20041;-75